createdAt,value
2022-08-10T00:03:34.825Z,17.20
2022-08-10T00:08:36.775Z,17.10
2022-08-10T00:13:38.204Z,17.01
2022-08-10T00:18:39.579Z,16.85
2022-08-10T00:23:40.919Z,16.82
2022-08-10T00:28:42.277Z,16.73
2022-08-10T00:33:43.626Z,16.50
2022-08-10T00:38:45.000Z,16.42
2022-08-10T00:43:46.339Z,16.28
2022-08-10T00:48:47.746Z,16.22
2022-08-10T00:54:02.152Z,16.16
2022-08-10T00:59:03.550Z,16.07
2022-08-10T01:04:54.598Z,15.97
2022-08-10T01:09:34.947Z,15.85
2022-08-10T01:14:47.479Z,15.72
2022-08-10T01:19:54.684Z,15.68
2022-08-10T01:25:11.602Z,15.57
2022-08-10T01:30:14.330Z,15.51
2022-08-10T01:35:34.665Z,15.42
2022-08-10T01:40:40.075Z,15.27
2022-08-10T01:45:46.124Z,15.11
2022-08-10T01:50:59.516Z,15.01
2022-08-10T01:56:02.648Z,14.97
2022-08-10T02:01:04.610Z,14.80
2022-08-10T02:06:07.359Z,14.72
2022-08-10T02:11:10.332Z,14.66
2022-08-10T02:16:13.035Z,14.57
2022-08-10T02:21:14.431Z,14.47
2022-08-10T02:26:16.085Z,14.38
2022-08-10T02:31:22.272Z,14.33
2022-08-10T02:36:26.792Z,14.26
2022-08-10T02:45:12.481Z,14.16
2022-08-10T02:47:02.346Z,14.05
2022-08-10T02:52:08.991Z,13.91
2022-08-10T02:57:18.955Z,13.82
2022-08-10T03:02:25.200Z,13.76
2022-08-10T03:07:42.793Z,13.63
2022-08-10T03:12:49.276Z,13.62
2022-08-10T03:17:57.493Z,13.55
2022-08-10T03:23:01.440Z,13.50
2022-08-10T03:28:03.244Z,13.41
2022-08-10T03:33:06.443Z,13.34
2022-08-10T03:38:07.815Z,13.19
2022-08-10T03:43:11.450Z,13.17
2022-08-10T03:48:13.373Z,13.13
2022-08-10T03:54:02.379Z,13.14
2022-08-10T03:58:36.567Z,13.13
2022-08-10T04:03:37.965Z,12.99
2022-08-10T04:08:40.025Z,12.97
2022-08-10T04:13:41.378Z,12.82
2022-08-10T04:18:42.727Z,12.79
2022-08-10T04:23:49.914Z,12.75
2022-08-10T04:28:54.159Z,12.81
2022-08-10T04:33:57.843Z,12.87
2022-08-10T04:38:59.615Z,12.89
2022-08-10T04:44:01.143Z,12.84
2022-08-10T04:49:02.591Z,12.86
2022-08-10T04:54:07.202Z,12.94
2022-08-10T04:59:10.391Z,13.05
2022-08-10T05:04:34.974Z,13.20
2022-08-10T05:09:33.096Z,13.36
2022-08-10T05:14:54.723Z,13.54
2022-08-10T05:20:03.032Z,13.68
2022-08-10T05:25:08.126Z,13.87
2022-08-10T05:30:11.253Z,14.10
2022-08-10T05:35:12.649Z,14.33
2022-08-10T05:40:14.051Z,14.65
2022-08-10T05:45:26.655Z,15.04
2022-08-10T05:50:31.069Z,18.36
2022-08-10T05:55:32.486Z,20.80
2022-08-10T06:00:40.663Z,21.87
2022-08-10T06:05:44.947Z,23.03
2022-08-10T06:12:21.682Z,22.78
2022-08-10T06:16:09.841Z,24.10
2022-08-10T06:21:11.731Z,24.24
2022-08-10T06:26:16.420Z,25.50
2022-08-10T06:31:20.027Z,22.58
2022-08-10T06:36:22.960Z,24.23
2022-08-10T06:42:14.934Z,26.45
2022-08-10T06:46:49.852Z,26.81
2022-08-10T06:51:57.148Z,26.56
2022-08-10T06:57:17.356Z,27.92
2022-08-10T07:02:27.351Z,25.57
2022-08-10T07:07:32.150Z,25.94
2022-08-10T07:12:36.581Z,29.14
2022-08-10T07:17:39.698Z,29.38
2022-08-10T07:23:08.261Z,26.16
2022-08-10T07:28:03.559Z,26.62
2022-08-10T07:33:05.615Z,30.43
2022-08-10T07:38:07.487Z,29.44
2022-08-10T07:43:09.878Z,32.85
2022-08-10T07:48:16.439Z,30.87
2022-08-10T07:53:20.133Z,32.73
2022-08-10T07:58:25.077Z,31.91
2022-08-10T08:03:28.733Z,32.98
2022-08-10T08:08:30.912Z,33.88
2022-08-10T08:13:33.922Z,33.86
2022-08-10T08:18:37.079Z,33.01
2022-08-10T08:24:14.786Z,34.95
2022-08-10T08:29:04.867Z,35.12
2022-08-10T08:34:07.936Z,35.06
2022-08-10T08:39:10.611Z,36.98
2022-08-10T08:44:24.327Z,35.95
2022-08-10T08:50:08.318Z,35.77
2022-08-10T08:56:04.062Z,35.79
2022-08-10T09:00:48.399Z,35.09
2022-08-10T09:06:00.167Z,37.02
2022-08-10T09:11:20.295Z,36.85
2022-08-10T09:16:46.909Z,34.64
2022-08-10T09:21:58.673Z,35.22
2022-08-10T09:27:19.331Z,37.27
2022-08-10T09:36:14.847Z,34.98
2022-08-10T09:38:06.132Z,35.99
2022-08-10T09:43:26.271Z,36.25
2022-08-10T09:48:31.072Z,36.96
2022-08-10T09:53:44.610Z,35.37
2022-08-10T09:59:27.031Z,37.13
2022-08-10T10:04:25.937Z,36.60
2022-08-10T10:09:36.696Z,36.16
2022-08-10T10:15:09.041Z,37.48
2022-08-10T10:20:15.418Z,38.45
2022-08-10T10:25:50.847Z,36.79
2022-08-10T10:31:00.973Z,36.78
2022-08-10T10:36:03.076Z,36.73
2022-08-10T10:41:07.225Z,35.65
2022-08-10T10:46:11.602Z,35.89
2022-08-10T10:51:31.841Z,35.75
2022-08-10T10:56:42.592Z,35.77
2022-08-10T11:01:55.903Z,36.96
2022-08-10T11:07:13.154Z,36.28
2022-08-10T11:12:23.255Z,35.74
2022-08-10T11:17:31.945Z,35.06
2022-08-10T11:22:41.230Z,35.78
2022-08-10T11:27:48.854Z,35.60
2022-08-10T11:33:10.462Z,35.22
2022-08-10T11:38:32.900Z,35.90
2022-08-10T11:43:42.122Z,37.13
2022-08-10T11:48:53.693Z,36.52
2022-08-10T11:54:04.754Z,34.23
2022-08-10T11:59:24.930Z,34.82
2022-08-10T12:04:27.895Z,34.44
2022-08-10T12:10:05.582Z,34.11
2022-08-10T12:14:59.379Z,33.26
2022-08-10T12:20:13.538Z,33.15
2022-08-10T12:25:56.055Z,33.48
2022-08-10T12:30:48.896Z,33.77
2022-08-10T12:36:17.349Z,34.15
2022-08-10T12:41:41.567Z,32.68
2022-08-10T12:46:51.055Z,34.12
2022-08-10T12:52:15.870Z,34.42
2022-08-10T12:57:19.185Z,34.00
2022-08-10T13:02:26.349Z,33.29
2022-08-10T13:08:25.844Z,33.08
2022-08-10T13:12:55.725Z,32.30
2022-08-10T13:17:59.566Z,32.04
2022-08-10T13:23:02.432Z,32.08
2022-08-10T13:28:35.945Z,32.42
2022-08-10T13:34:41.000Z,32.98
2022-08-10T13:38:50.704Z,32.91
2022-08-10T13:43:54.474Z,33.01
2022-08-10T13:48:57.799Z,32.93
2022-08-10T13:54:01.647Z,33.09
2022-08-10T13:59:07.903Z,32.74
2022-08-10T14:04:12.958Z,32.08
2022-08-10T14:09:17.673Z,31.98
2022-08-10T14:14:20.702Z,31.91
2022-08-10T14:19:27.714Z,31.49
2022-08-10T14:24:30.332Z,32.13
2022-08-10T14:29:33.547Z,31.75
2022-08-10T14:36:08.433Z,31.43
2022-08-10T14:40:02.667Z,31.39
2022-08-10T14:45:19.110Z,31.32
2022-08-10T14:50:32.520Z,31.27
2022-08-10T14:55:58.843Z,30.89
2022-08-10T15:00:56.994Z,30.81
2022-08-10T15:05:59.967Z,30.99
2022-08-10T15:11:01.712Z,31.05
2022-08-10T15:16:13.546Z,30.97
2022-08-10T15:21:17.550Z,30.92
2022-08-10T15:26:21.741Z,30.64
2022-08-10T15:31:23.629Z,30.67
2022-08-10T15:36:44.760Z,30.51
2022-08-10T15:41:59.084Z,30.35
2022-08-10T15:47:03.990Z,30.28
2022-08-10T15:52:13.176Z,30.52
2022-08-10T15:57:37.425Z,30.45
2022-08-10T16:02:45.101Z,30.34
2022-08-10T16:07:50.599Z,30.11
2022-08-10T16:12:59.852Z,29.86
2022-08-10T16:18:04.608Z,29.89
2022-08-10T16:23:08.555Z,30.00
2022-08-10T16:28:11.047Z,30.00
2022-08-10T16:33:28.086Z,30.06
2022-08-10T16:38:50.155Z,30.00
2022-08-10T16:43:51.813Z,29.78
2022-08-10T16:48:53.749Z,29.67
2022-08-10T16:53:58.909Z,29.35
2022-08-10T16:59:00.400Z,29.50
2022-08-10T17:04:05.762Z,29.45
2022-08-10T17:09:18.521Z,29.36
2022-08-10T17:14:24.302Z,29.35
2022-08-10T17:19:26.592Z,29.27
2022-08-10T17:24:30.204Z,29.16
2022-08-10T17:29:57.519Z,28.97
2022-08-10T17:34:57.818Z,28.90
2022-08-10T17:40:05.953Z,28.73
2022-08-10T17:45:13.319Z,28.66
2022-08-10T17:50:23.399Z,28.43
2022-08-10T17:55:24.998Z,28.43
2022-08-10T18:00:26.462Z,28.43
2022-08-10T18:05:32.096Z,28.44
2022-08-10T18:10:33.553Z,28.40
2022-08-10T18:15:39.175Z,28.11
2022-08-10T18:20:41.269Z,27.89
2022-08-10T18:25:44.421Z,27.71
2022-08-10T18:30:48.666Z,27.41
2022-08-10T18:35:51.364Z,27.09
2022-08-10T18:40:56.863Z,26.87
2022-08-10T18:46:00.011Z,26.70
2022-08-10T18:51:05.925Z,26.21
2022-08-10T18:56:26.602Z,25.78
2022-08-10T19:01:34.093Z,25.51
2022-08-10T19:06:58.946Z,25.09
2022-08-10T19:12:00.268Z,24.72
2022-08-10T19:17:01.587Z,24.37
2022-08-10T19:22:20.203Z,23.98
2022-08-10T19:27:33.881Z,23.70
2022-08-10T19:32:53.866Z,23.41
2022-08-10T19:38:32.098Z,23.07
2022-08-10T19:44:00.884Z,22.79
2022-08-10T19:49:13.908Z,22.56
2022-08-10T19:54:15.238Z,22.32
2022-08-10T20:00:16.804Z,22.08
2022-08-10T20:05:18.192Z,21.90
2022-08-10T20:10:31.758Z,21.63
2022-08-10T20:15:42.616Z,21.55
2022-08-10T20:20:53.329Z,21.43
2022-08-10T20:25:54.659Z,21.19
2022-08-10T20:31:02.455Z,21.05
2022-08-10T20:36:20.877Z,20.97
2022-08-10T20:41:23.009Z,20.83
2022-08-10T20:46:30.862Z,20.68
2022-08-10T20:51:59.578Z,20.55
2022-08-10T20:57:53.517Z,20.44
2022-08-10T21:02:48.758Z,20.37
2022-08-10T21:08:02.062Z,20.24
2022-08-10T21:13:09.801Z,20.16
2022-08-10T21:18:11.416Z,19.99
2022-08-10T21:23:13.996Z,19.87
2022-08-10T21:28:30.742Z,19.72
2022-08-10T21:33:42.784Z,19.65
2022-08-10T21:38:44.077Z,19.55
2022-08-10T21:44:25.666Z,19.44
2022-08-10T21:49:57.464Z,19.35
2022-08-10T21:55:57.473Z,19.26
2022-08-10T22:01:12.927Z,19.21
2022-08-10T22:06:40.212Z,19.13
2022-08-10T22:12:31.199Z,19.07
2022-08-10T22:18:03.624Z,18.97
2022-08-10T22:23:28.305Z,18.88
2022-08-10T22:28:48.862Z,18.84
2022-08-10T22:34:27.991Z,18.68
2022-08-10T22:40:13.413Z,18.59
2022-08-10T22:45:35.702Z,18.59
2022-08-10T22:50:37.435Z,18.48
2022-08-10T22:55:58.460Z,18.37
2022-08-10T23:01:05.697Z,18.17
2022-08-10T23:06:10.099Z,18.08
2022-08-10T23:11:16.117Z,17.94
2022-08-10T23:16:37.646Z,17.82
2022-08-10T23:22:05.764Z,17.74
2022-08-10T23:27:13.101Z,17.62
2022-08-10T23:32:32.532Z,17.50
2022-08-10T23:37:34.680Z,17.49
2022-08-10T23:42:38.575Z,17.43
2022-08-10T23:47:42.511Z,17.23
2022-08-10T23:52:54.960Z,17.20
2022-08-10T23:58:01.627Z,17.05
